Rosaria Lauro — IXXO — position and weather

sailwx.info

Track history (hours):
 
Tides and Currents Weather Stations Pressure Air Temp Water Temp Dewpoint Dewpoint Depression Visibility Wind Speed Wind Dir Waves Ship Positions

Rosaria Lauro

Last reported at 2015-Jul-29 16:33 UTC. Time now 2015-Jul-29 20:02 UTC.
Position N 40°44' E 013°52'.

Length 40 m; draft 1.1 m.

Type: Passenger vessel. MMSI: 247055900.

Date/timePositionNaut miles runAvg speedWind from/ knotsBaromVisibWave heightAir tempDewpointWater temp
2015-Jul-29 16:33N 40°44' E 013°52'9 4.6
2015-Jul-29 14:33N 40°46' E 014°03'9 9.3
2015-Jul-29 13:33N 40°44' E 013°52'0 0.0
2015-Jul-29 12:33N 40°44' E 013°52'10 9.9
2015-Jul-29 11:34N 40°46' E 014°04'9 9.2
2015-Jul-29 10:33N 40°49' E 014°16'1515.4
2015-Jul-29 09:34N 40°45' E 013°56'0 0.5
2015-Jul-29 08:34N 40°45' E 013°56'7 2.3
2015-Jul-29 05:33N 40°46' E 014°05'1110.6
2015-Jul-29 04:33N 40°44' E 013°52'1 0.1
2015-Jul-28 16:33N 40°46' E 013°52'1913.2
2015-Jul-28 15:07N 40°50' E 014°16'1120.3
2015-Jul-28 14:34N 40°45' E 014°03'9 8.8
2015-Jul-28 13:32N 40°44' E 013°52'0 0.0
2015-Jul-28 12:32N 40°44' E 013°52'1414.3
2015-Jul-28 11:33N 40°47' E 014°10'4 3.7
2015-Jul-28 10:33N 40°48' E 014°14'1414.3
2015-Jul-28 09:34N 40°45' E 013°56'1 0.7
2015-Jul-28 08:34N 40°45' E 013°57'16 6.6
2015-Jul-28 06:10N 40°50' E 014°16'1220.7
2015-Jul-28 05:34N 40°46' E 014°01'7 7.1
2015-Jul-28 04:33N 40°44' E 013°52'4 0.4
2015-Jul-27 16:34N 40°45' E 013°57'1514.4
2015-Jul-27 15:29N 40°50' E 014°16'2021.2
2015-Jul-27 14:34N 40°45' E 013°51'4 3.9
2015-Jul-27 13:34N 40°45' E 013°56'16 5.0
2015-Jul-27 10:23N 40°50' E 014°16'1619.9
2015-Jul-27 09:34N 40°45' E 013°56'1 1.1
2015-Jul-27 08:34N 40°45' E 013°57'4 0.3
2015-Jul-26 19:22N 40°44' E 013°52'1721.6
2015-Jul-26 18:33N 40°48' E 014°14'9 8.7
2015-Jul-26 17:33N 40°45' E 014°04'6 5.6
2015-Jul-26 16:34N 40°45' E 013°56'1615.1
2015-Jul-26 15:30N 40°50' E 014°16'1920.8
2015-Jul-26 14:33N 40°45' E 013°52'4 3.7
2015-Jul-26 13:34N 40°45' E 013°56'1612.0
2015-Jul-26 12:13N 40°50' E 014°16'1421.6
2015-Jul-26 11:34N 40°44' E 013°59'6 5.7
2015-Jul-26 10:33N 40°44' E 013°52'9 8.7
2015-Jul-26 09:33N 40°45' E 014°03'11 8.9
2015-Jul-26 08:17N 40°50' E 014°16'1520.8
2015-Jul-26 07:34N 40°45' E 013°58'1 1.0
2015-Jul-26 06:33N 40°45' E 013°56'1612.3
2015-Jul-26 05:14N 40°50' E 014°17'1623.8
2015-Jul-26 04:33N 40°45' E 013°56'4 3.7
2015-Jul-26 03:33N 40°44' E 013°52'0 0.0
2015-Jul-25 20:31N 40°44' E 013°52'0 0.0
2015-Jul-25 19:33N 40°44' E 013°52'1110.8
2015-Jul-25 18:33N 40°46' E 014°06'6 5.6
2015-Jul-25 17:33N 40°47' E 014°13'1616.2
2015-Jul-25 16:34N 40°46' E 013°52'15 3.9
2015-Jul-25 12:34N 40°47' E 014°12'1212.0
2015-Jul-25 11:33N 40°45' E 013°56'1412.9
2015-Jul-25 10:27N 40°49' E 014°14'2 1.8
2015-Jul-25 09:33N 40°50' E 014°16'1616.0
2015-Jul-25 08:33N 40°45' E 013°56'6 1.9
2015-Jul-25 05:34N 40°45' E 014°04'9 9.3
2015-Jul-25 04:33N 40°44' E 013°52'0 0.0
2015-Jul-25 03:33N 40°44' E 013°52'0 0.0
2015-Jul-24 19:22N 40°44' E 013°52'1215.0
2015-Jul-24 18:34N 40°47' E 014°07'2 1.9
2015-Jul-24 17:34N 40°47' E 014°10'1211.9
2015-Jul-24 16:34N 40°46' E 013°54'7 3.7
2015-Jul-24 14:33N 40°46' E 014°04'9 9.4
2015-Jul-24 13:33N 40°44' E 013°52'0 0.0
2015-Jul-24 12:17N 40°44' E 013°52'811.3
2015-Jul-24 11:33N 40°47' E 014°02'1111.3
2015-Jul-24 10:33N 40°50' E 014°16'1616.1
2015-Jul-24 09:33N 40°45' E 013°56'0 0.0
2015-Jul-24 08:33N 40°45' E 013°56'16 6.5
2015-Jul-24 06:03N 40°50' E 014°17'1122.4
2015-Jul-24 05:34N 40°46' E 014°03'9 8.8
2015-Jul-24 04:33N 40°44' E 013°52'0 0.0
2015-Jul-24 03:33N 40°44' E 013°52'  
2015-Jul-21 16:26N 40°45' E 013°56'1618.1
2015-Jul-21 15:33N 40°49' E 014°17'9 9.5
2015-Jul-21 14:34N 40°46' E 014°05'1010.2
2015-Jul-21 13:34N 40°44' E 013°51'20 6.6
2015-Jul-21 10:33N 40°50' E 014°17'1616.2
2015-Jul-21 09:34N 40°45' E 013°56'1 0.6
2015-Jul-21 08:33N 40°45' E 013°56'8 2.6
2015-Jul-21 05:33N 40°46' E 014°07'1210.8
2015-Jul-21 04:29N 40°44' E 013°52'1 0.1
2015-Jul-20 16:33N 40°46' E 013°52'1916.3
2015-Jul-20 15:22N 40°50' E 014°17'2024.0
2015-Jul-20 14:34N 40°45' E 013°52'4 3.7
2015-Jul-20 13:34N 40°45' E 013°56'16 3.9
2015-Jul-20 09:29N 40°50' E 014°16'1617.1
2015-Jul-20 08:33N 40°45' E 013°56'4 0.9
2015-Jul-20 04:26N 40°44' E 013°52'0 0.0
2015-Jul-19 19:33N 40°44' E 013°52'2015.8
2015-Jul-19 18:17N 40°49' E 014°17'1521.1
2015-Jul-19 17:33N 40°45' E 013°58'3 3.2
2015-Jul-19 16:34N 40°44' E 014°02'  
Track history (hours):
 
Tides and Currents Weather Stations Pressure Air Temp Water Temp Dewpoint Dewpoint Depression Visibility Wind Speed Wind Dir Waves Ship Positions

Rosaria Lauro

Last reported at 2015-Jul-29 16:33 UTC. Time now 2015-Jul-29 20:02 UTC.
Position N 40°44' E 013°52'.

Length 40 m; draft 1.1 m.

Type: Passenger vessel. MMSI: 247055900.

Date/timePositionNaut miles runAvg speedWind from/ knotsBaromVisibWave heightAir tempDewpointWater temp
2015-Jul-29 16:33N 40°44' E 013°52'9 4.6
2015-Jul-29 14:33N 40°46' E 014°03'9 9.3
2015-Jul-29 13:33N 40°44' E 013°52'0 0.0
2015-Jul-29 12:33N 40°44' E 013°52'10 9.9
2015-Jul-29 11:34N 40°46' E 014°04'9 9.2
2015-Jul-29 10:33N 40°49' E 014°16'1515.4
2015-Jul-29 09:34N 40°45' E 013°56'0 0.5
2015-Jul-29 08:34N 40°45' E 013°56'7 2.3
2015-Jul-29 05:33N 40°46' E 014°05'1110.6
2015-Jul-29 04:33N 40°44' E 013°52'1 0.1
2015-Jul-28 16:33N 40°46' E 013°52'1913.2
2015-Jul-28 15:07N 40°50' E 014°16'1120.3
2015-Jul-28 14:34N 40°45' E 014°03'9 8.8
2015-Jul-28 13:32N 40°44' E 013°52'0 0.0
2015-Jul-28 12:32N 40°44' E 013°52'1414.3
2015-Jul-28 11:33N 40°47' E 014°10'4 3.7
2015-Jul-28 10:33N 40°48' E 014°14'1414.3
2015-Jul-28 09:34N 40°45' E 013°56'1 0.7
2015-Jul-28 08:34N 40°45' E 013°57'16 6.6
2015-Jul-28 06:10N 40°50' E 014°16'1220.7
2015-Jul-28 05:34N 40°46' E 014°01'7 7.1
2015-Jul-28 04:33N 40°44' E 013°52'4 0.4
2015-Jul-27 16:34N 40°45' E 013°57'1514.4
2015-Jul-27 15:29N 40°50' E 014°16'2021.2
2015-Jul-27 14:34N 40°45' E 013°51'4 3.9
2015-Jul-27 13:34N 40°45' E 013°56'16 5.0
2015-Jul-27 10:23N 40°50' E 014°16'1619.9
2015-Jul-27 09:34N 40°45' E 013°56'1 1.1
2015-Jul-27 08:34N 40°45' E 013°57'4 0.3
2015-Jul-26 19:22N 40°44' E 013°52'1721.6
2015-Jul-26 18:33N 40°48' E 014°14'9 8.7
2015-Jul-26 17:33N 40°45' E 014°04'6 5.6
2015-Jul-26 16:34N 40°45' E 013°56'1615.1
2015-Jul-26 15:30N 40°50' E 014°16'1920.8
2015-Jul-26 14:33N 40°45' E 013°52'4 3.7
2015-Jul-26 13:34N 40°45' E 013°56'1612.0
2015-Jul-26 12:13N 40°50' E 014°16'1421.6
2015-Jul-26 11:34N 40°44' E 013°59'6 5.7
2015-Jul-26 10:33N 40°44' E 013°52'9 8.7
2015-Jul-26 09:33N 40°45' E 014°03'11 8.9
2015-Jul-26 08:17N 40°50' E 014°16'1520.8
2015-Jul-26 07:34N 40°45' E 013°58'1 1.0
2015-Jul-26 06:33N 40°45' E 013°56'1612.3
2015-Jul-26 05:14N 40°50' E 014°17'1623.8
2015-Jul-26 04:33N 40°45' E 013°56'4 3.7
2015-Jul-26 03:33N 40°44' E 013°52'0 0.0
2015-Jul-25 20:31N 40°44' E 013°52'0 0.0
2015-Jul-25 19:33N 40°44' E 013°52'1110.8
2015-Jul-25 18:33N 40°46' E 014°06'6 5.6
2015-Jul-25 17:33N 40°47' E 014°13'1616.2
2015-Jul-25 16:34N 40°46' E 013°52'15 3.9
2015-Jul-25 12:34N 40°47' E 014°12'1212.0
2015-Jul-25 11:33N 40°45' E 013°56'1412.9
2015-Jul-25 10:27N 40°49' E 014°14'2 1.8
2015-Jul-25 09:33N 40°50' E 014°16'1616.0
2015-Jul-25 08:33N 40°45' E 013°56'6 1.9
2015-Jul-25 05:34N 40°45' E 014°04'9 9.3
2015-Jul-25 04:33N 40°44' E 013°52'0 0.0
2015-Jul-25 03:33N 40°44' E 013°52'0 0.0
2015-Jul-24 19:22N 40°44' E 013°52'1215.0
2015-Jul-24 18:34N 40°47' E 014°07'2 1.9
2015-Jul-24 17:34N 40°47' E 014°10'1211.9
2015-Jul-24 16:34N 40°46' E 013°54'7 3.7
2015-Jul-24 14:33N 40°46' E 014°04'9 9.4
2015-Jul-24 13:33N 40°44' E 013°52'0 0.0
2015-Jul-24 12:17N 40°44' E 013°52'811.3
2015-Jul-24 11:33N 40°47' E 014°02'1111.3
2015-Jul-24 10:33N 40°50' E 014°16'1616.1
2015-Jul-24 09:33N 40°45' E 013°56'0 0.0
2015-Jul-24 08:33N 40°45' E 013°56'16 6.5
2015-Jul-24 06:03N 40°50' E 014°17'1122.4
2015-Jul-24 05:34N 40°46' E 014°03'9 8.8
2015-Jul-24 04:33N 40°44' E 013°52'0 0.0
2015-Jul-24 03:33N 40°44' E 013°52'  
2015-Jul-21 16:26N 40°45' E 013°56'1618.1
2015-Jul-21 15:33N 40°49' E 014°17'9 9.5
2015-Jul-21 14:34N 40°46' E 014°05'1010.2
2015-Jul-21 13:34N 40°44' E 013°51'20 6.6
2015-Jul-21 10:33N 40°50' E 014°17'1616.2
2015-Jul-21 09:34N 40°45' E 013°56'1 0.6
2015-Jul-21 08:33N 40°45' E 013°56'8 2.6
2015-Jul-21 05:33N 40°46' E 014°07'1210.8
2015-Jul-21 04:29N 40°44' E 013°52'1 0.1
2015-Jul-20 16:33N 40°46' E 013°52'1916.3
2015-Jul-20 15:22N 40°50' E 014°17'2024.0
2015-Jul-20 14:34N 40°45' E 013°52'4 3.7
2015-Jul-20 13:34N 40°45' E 013°56'16 3.9
2015-Jul-20 09:29N 40°50' E 014°16'1617.1
2015-Jul-20 08:33N 40°45' E 013°56'4 0.9
2015-Jul-20 04:26N 40°44' E 013°52'0 0.0
2015-Jul-19 19:33N 40°44' E 013°52'2015.8
2015-Jul-19 18:17N 40°49' E 014°17'1521.1
2015-Jul-19 17:33N 40°45' E 013°58'3 3.2
2015-Jul-19 16:34N 40°44' E 014°02'  

Dump ship's entire track history